createdAt,value
2018-09-02T00:02:04.472Z,956.52
2018-09-02T00:04:30.785Z,956.53
2018-09-02T00:06:57.146Z,956.52
2018-09-02T00:09:23.449Z,956.59
2018-09-02T00:11:49.775Z,956.53
2018-09-02T00:14:16.099Z,956.54
2018-09-02T00:16:42.494Z,956.54
2018-09-02T00:19:08.816Z,956.64
2018-09-02T00:21:35.145Z,956.62
2018-09-02T00:24:01.452Z,956.69
2018-09-02T00:26:27.775Z,956.72
2018-09-02T00:28:54.139Z,956.76
2018-09-02T00:31:20.459Z,956.76
2018-09-02T00:33:46.849Z,956.76
2018-09-02T00:36:13.114Z,956.86
2018-09-02T00:38:39.432Z,956.83
2018-09-02T00:41:05.759Z,956.75
2018-09-02T00:43:32.074Z,956.80
2018-09-02T00:45:58.391Z,956.82
2018-09-02T00:48:24.703Z,956.84
2018-09-02T00:50:51.029Z,956.82
2018-09-02T00:53:17.343Z,956.86
2018-09-02T00:55:43.655Z,956.85
2018-09-02T00:58:09.968Z,956.89
2018-09-02T01:00:36.279Z,956.91
2018-09-02T01:03:02.602Z,956.88
2018-09-02T01:05:28.919Z,956.90
2018-09-02T01:07:55.240Z,956.86
2018-09-02T01:10:21.561Z,956.92
2018-09-02T01:12:47.884Z,956.97
2018-09-02T01:15:14.209Z,956.98
2018-09-02T01:17:40.537Z,956.99
2018-09-02T01:20:06.861Z,957.03
2018-09-02T01:22:33.195Z,956.98
2018-09-02T01:24:59.519Z,956.92
2018-09-02T01:27:25.847Z,956.97
2018-09-02T01:29:52.180Z,956.95
2018-09-02T01:32:18.492Z,956.92
2018-09-02T01:34:44.813Z,956.89
2018-09-02T01:37:11.127Z,956.96
2018-09-02T01:39:37.437Z,957.00
2018-09-02T01:42:03.756Z,956.95
2018-09-02T01:44:30.081Z,956.96
2018-09-02T01:46:56.410Z,956.94
2018-09-02T01:49:22.740Z,956.95
2018-09-02T01:51:49.072Z,956.89
2018-09-02T01:54:15.388Z,956.93
2018-09-02T01:56:41.711Z,956.86
2018-09-02T01:59:08.034Z,956.87
2018-09-02T02:01:34.355Z,956.94
2018-09-02T02:04:00.672Z,956.99
2018-09-02T02:06:26.986Z,956.98
2018-09-02T02:08:53.310Z,956.97
2018-09-02T02:11:19.625Z,957.04
2018-09-02T02:13:45.938Z,957.00
2018-09-02T02:16:12.257Z,957.00
2018-09-02T02:18:38.621Z,956.97
2018-09-02T02:21:04.937Z,956.90
2018-09-02T02:23:31.254Z,956.92
2018-09-02T02:25:57.564Z,956.89
2018-09-02T02:28:23.879Z,956.93
2018-09-02T02:30:50.255Z,956.93
2018-09-02T02:33:16.574Z,956.87
2018-09-02T02:35:42.890Z,956.91
2018-09-02T02:38:09.211Z,956.95
2018-09-02T02:40:35.577Z,956.91
2018-09-02T02:43:01.906Z,956.98
2018-09-02T02:45:28.276Z,956.96
2018-09-02T02:47:54.592Z,956.98
2018-09-02T02:50:20.907Z,957.01
2018-09-02T02:52:47.267Z,957.06
2018-09-02T02:55:13.595Z,957.12
2018-09-02T02:57:39.909Z,957.09
2018-09-02T03:00:06.280Z,957.05
2018-09-02T03:02:32.610Z,957.10
2018-09-02T03:04:58.919Z,957.07
2018-09-02T03:07:25.247Z,957.07
2018-09-02T03:09:51.563Z,957.11
2018-09-02T03:12:17.884Z,957.15
2018-09-02T03:14:44.190Z,957.13
2018-09-02T03:17:10.500Z,957.11
2018-09-02T03:19:36.816Z,957.16
2018-09-02T03:22:03.197Z,957.16
2018-09-02T03:24:29.541Z,957.19
2018-09-02T03:26:55.824Z,957.14
2018-09-02T03:29:22.142Z,957.24
2018-09-02T03:31:49.683Z,957.20
2018-09-02T03:34:14.786Z,957.26
2018-09-02T03:36:41.109Z,957.29
2018-09-02T03:39:07.455Z,957.32
2018-09-02T03:41:33.817Z,957.44
2018-09-02T03:44:00.100Z,957.45
2018-09-02T03:46:26.423Z,957.39
2018-09-02T03:48:52.783Z,957.40
2018-09-02T03:51:19.097Z,957.36
2018-09-02T03:53:45.484Z,957.35
2018-09-02T03:56:11.819Z,957.34
2018-09-02T03:58:38.198Z,957.31
2018-09-02T04:01:04.519Z,957.42
2018-09-02T04:03:30.871Z,957.43
2018-09-02T04:05:57.203Z,957.41
2018-09-02T04:08:23.535Z,957.51
2018-09-02T04:10:49.854Z,957.47
2018-09-02T04:13:16.168Z,957.45
2018-09-02T04:15:42.506Z,957.52
2018-09-02T04:18:08.822Z,957.53
2018-09-02T04:20:35.186Z,957.58
2018-09-02T04:23:01.497Z,957.60
2018-09-02T04:25:27.824Z,957.60
2018-09-02T04:27:54.147Z,957.54
2018-09-02T04:30:20.539Z,957.51
2018-09-02T04:32:46.850Z,957.51
2018-09-02T04:35:13.167Z,957.55
2018-09-02T04:37:39.499Z,957.56
2018-09-02T04:40:05.815Z,957.72
2018-09-02T04:42:32.187Z,957.69
2018-09-02T04:44:58.508Z,957.69
2018-09-02T04:47:24.822Z,957.73
2018-09-02T04:49:51.186Z,957.73
2018-09-02T04:52:17.475Z,957.65
2018-09-02T04:54:43.805Z,957.63
2018-09-02T04:57:10.132Z,957.62
2018-09-02T04:59:36.434Z,957.65
2018-09-02T05:02:02.751Z,957.70
2018-09-02T05:04:29.071Z,957.67
2018-09-02T05:06:55.376Z,957.60
2018-09-02T05:09:21.708Z,957.61
2018-09-02T05:11:48.053Z,957.56
2018-09-02T05:14:14.482Z,957.55
2018-09-02T05:16:40.702Z,957.61
2018-09-02T05:19:07.007Z,957.59
2018-09-02T05:21:33.319Z,957.57
2018-09-02T05:23:59.640Z,957.55
2018-09-02T05:26:25.951Z,957.54
2018-09-02T05:28:52.271Z,957.55
2018-09-02T05:31:18.592Z,957.51
2018-09-02T05:33:44.966Z,957.54
2018-09-02T05:36:11.305Z,957.50
2018-09-02T05:38:37.634Z,957.53
2018-09-02T05:41:03.967Z,957.51
2018-09-02T05:43:30.290Z,957.48
2018-09-02T05:45:56.612Z,957.58
2018-09-02T05:48:22.933Z,957.45
2018-09-02T05:50:49.265Z,957.44
2018-09-02T05:53:15.582Z,957.42
2018-09-02T05:55:41.906Z,957.45
2018-09-02T05:58:08.228Z,957.42
2018-09-02T06:00:34.540Z,957.37
2018-09-02T06:03:00.850Z,957.40
2018-09-02T06:05:27.168Z,957.49
2018-09-02T06:07:53.487Z,957.56
2018-09-02T06:10:19.805Z,957.58
2018-09-02T06:12:46.159Z,957.62
2018-09-02T06:15:12.469Z,957.69
2018-09-02T06:17:38.797Z,957.62
2018-09-02T06:20:05.108Z,957.62
2018-09-02T06:22:31.429Z,957.57
2018-09-02T06:24:57.741Z,957.57
2018-09-02T06:27:24.099Z,957.58
2018-09-02T06:29:50.453Z,957.58
2018-09-02T06:32:16.781Z,957.54
2018-09-02T06:34:43.097Z,957.61
2018-09-02T06:37:09.425Z,957.61
2018-09-02T06:39:35.788Z,957.57
2018-09-02T06:42:02.069Z,957.66
2018-09-02T06:44:28.378Z,957.70
2018-09-02T06:46:54.774Z,957.67
2018-09-02T06:49:21.121Z,957.70
2018-09-02T06:51:47.422Z,957.68
2018-09-02T06:54:13.772Z,957.71
2018-09-02T06:56:40.073Z,957.65
2018-09-02T06:59:06.390Z,957.68
2018-09-02T07:01:32.712Z,957.71
2018-09-02T07:03:59.042Z,957.72
2018-09-02T07:06:25.399Z,957.75
2018-09-02T07:08:51.733Z,957.80
2018-09-02T07:11:18.062Z,957.79
2018-09-02T07:13:44.382Z,957.80
2018-09-02T07:16:10.700Z,957.85
2018-09-02T07:18:37.029Z,957.88
2018-09-02T07:21:03.358Z,957.87
2018-09-02T07:23:29.681Z,957.85
2018-09-02T07:25:56.012Z,957.84
2018-09-02T07:28:22.379Z,957.80
2018-09-02T07:30:48.709Z,957.77
2018-09-02T07:33:15.050Z,957.82
2018-09-02T07:35:41.403Z,957.79
2018-09-02T07:38:07.736Z,957.85
2018-09-02T07:40:34.050Z,957.76
2018-09-02T07:43:00.441Z,957.80
2018-09-02T07:45:26.736Z,957.81
2018-09-02T07:47:53.053Z,957.73
2018-09-02T07:50:19.373Z,957.67
2018-09-02T07:52:45.701Z,957.66
2018-09-02T07:55:12.017Z,957.58
2018-09-02T07:57:38.361Z,957.67
2018-09-02T08:00:04.672Z,957.63
2018-09-02T08:02:31.061Z,957.58
2018-09-02T08:04:57.327Z,957.56
2018-09-02T08:07:23.657Z,957.50
2018-09-02T08:09:50.021Z,957.45
2018-09-02T08:12:16.352Z,957.43
2018-09-02T08:14:42.691Z,957.42
2018-09-02T08:17:09.047Z,957.41
2018-09-02T08:19:35.324Z,957.42
2018-09-02T08:22:01.678Z,957.42
2018-09-02T08:24:28.021Z,957.41
2018-09-02T08:26:54.348Z,957.45
2018-09-02T08:29:20.666Z,957.47
2018-09-02T08:31:46.991Z,957.54
2018-09-02T08:34:13.359Z,957.47
2018-09-02T08:36:39.687Z,957.41
2018-09-02T08:39:06.014Z,957.45
2018-09-02T08:41:32.338Z,957.41
2018-09-02T08:43:58.712Z,957.44
2018-09-02T08:46:25.038Z,957.41
2018-09-02T08:48:51.454Z,957.39
2018-09-02T08:51:17.776Z,957.34
2018-09-02T08:53:44.112Z,957.37
2018-09-02T08:56:10.426Z,957.29
2018-09-02T08:58:36.735Z,957.32
2018-09-02T09:01:03.107Z,957.20
2018-09-02T09:03:29.430Z,957.21
2018-09-02T09:05:55.752Z,957.15
2018-09-02T09:08:22.119Z,957.16
2018-09-02T09:10:48.404Z,957.18
2018-09-02T09:13:14.762Z,957.19
2018-09-02T09:15:41.084Z,957.12
2018-09-02T09:18:07.397Z,957.10
2018-09-02T09:20:33.709Z,957.16
2018-09-02T09:23:00.024Z,957.09
2018-09-02T09:25:26.351Z,957.08
2018-09-02T09:27:52.776Z,956.96
2018-09-02T09:30:19.141Z,957.01
2018-09-02T09:32:45.454Z,956.99
2018-09-02T09:35:11.773Z,956.95
2018-09-02T09:37:38.120Z,957.02
2018-09-02T09:40:04.437Z,956.96
2018-09-02T09:42:30.767Z,957.01
2018-09-02T09:44:57.107Z,956.90
2018-09-02T09:47:23.433Z,956.80
2018-09-02T09:49:49.761Z,956.95
2018-09-02T09:52:16.093Z,957.06
2018-09-02T09:54:42.454Z,956.95
2018-09-02T09:57:08.763Z,957.21
2018-09-02T09:59:35.086Z,956.85
2018-09-02T10:02:01.401Z,956.97
2018-09-02T10:04:27.715Z,956.93
2018-09-02T10:06:54.052Z,956.78
2018-09-02T10:09:23.407Z,956.82
2018-09-02T10:11:49.796Z,956.75
2018-09-02T10:14:31.701Z,956.70
2018-09-02T10:16:51.614Z,956.86
2018-09-02T10:19:17.924Z,956.93
2018-09-02T10:21:44.270Z,956.73
2018-09-02T10:24:10.584Z,956.82
2018-09-02T10:26:36.896Z,956.70
2018-09-02T10:29:03.222Z,956.58
2018-09-02T10:31:29.553Z,956.66
2018-09-02T10:33:55.882Z,956.85
2018-09-02T10:36:22.196Z,956.58
2018-09-02T10:38:48.522Z,956.66
2018-09-02T10:41:14.969Z,956.58
2018-09-02T10:43:41.231Z,956.45
2018-09-02T10:46:07.544Z,956.65
2018-09-02T10:48:33.851Z,956.44
2018-09-02T10:51:00.187Z,956.50
2018-09-02T10:53:26.491Z,956.53
2018-09-02T10:55:52.819Z,956.39
2018-09-02T10:58:19.156Z,956.56
2018-09-02T11:00:45.480Z,956.44
2018-09-02T11:03:11.812Z,956.36
2018-09-02T11:05:38.115Z,956.31
2018-09-02T11:08:04.427Z,956.32
2018-09-02T11:10:30.741Z,956.27
2018-09-02T11:12:57.073Z,956.28
2018-09-02T11:15:23.363Z,956.25
2018-09-02T11:17:49.745Z,956.32
2018-09-02T11:20:16.130Z,956.31
2018-09-02T11:22:42.411Z,956.37
2018-09-02T11:25:08.724Z,956.21
2018-09-02T11:27:35.091Z,956.29
2018-09-02T11:30:01.423Z,956.22
2018-09-02T11:32:27.732Z,956.21
2018-09-02T11:34:54.057Z,956.18
2018-09-02T11:37:20.371Z,956.11
2018-09-02T11:39:46.698Z,956.15
2018-09-02T11:42:13.013Z,956.12
2018-09-02T11:44:39.359Z,956.17
2018-09-02T11:47:05.675Z,955.98
2018-09-02T11:49:31.981Z,956.16
2018-09-02T11:51:58.297Z,956.16
2018-09-02T11:54:24.621Z,955.96
2018-09-02T11:56:50.985Z,955.95
2018-09-02T11:59:17.310Z,956.00
2018-09-02T12:01:43.621Z,955.91
2018-09-02T12:04:09.951Z,955.91
2018-09-02T12:06:36.265Z,955.90
2018-09-02T12:09:02.632Z,956.05
2018-09-02T12:11:29.022Z,955.85
2018-09-02T12:13:55.544Z,955.78
2018-09-02T12:16:21.656Z,955.81
2018-09-02T12:18:47.966Z,955.95
2018-09-02T12:21:14.339Z,955.74
2018-09-02T12:23:40.653Z,955.82
2018-09-02T12:26:06.963Z,955.91
2018-09-02T12:28:33.313Z,955.72
2018-09-02T12:30:59.620Z,955.84
2018-09-02T12:33:25.947Z,955.74
2018-09-02T12:35:52.251Z,955.74
2018-09-02T12:38:18.621Z,955.66
2018-09-02T12:40:44.933Z,955.70
2018-09-02T12:43:11.287Z,955.64
2018-09-02T12:45:37.601Z,955.69
2018-09-02T12:48:03.984Z,955.49
2018-09-02T12:50:30.251Z,955.69
2018-09-02T12:52:56.894Z,955.64
2018-09-02T12:55:22.993Z,955.59
2018-09-02T12:57:49.239Z,955.69
2018-09-02T13:00:15.567Z,955.56
2018-09-02T13:02:41.901Z,955.59
2018-09-02T13:05:08.212Z,955.56
2018-09-02T13:07:34.550Z,955.52
2018-09-02T13:10:00.871Z,955.54
2018-09-02T13:12:27.198Z,955.53
2018-09-02T13:14:53.528Z,955.55
2018-09-02T13:17:19.855Z,955.44
2018-09-02T13:19:46.213Z,955.52
2018-09-02T13:22:12.529Z,955.59
2018-09-02T13:24:38.889Z,955.63
2018-09-02T13:27:05.169Z,955.55
2018-09-02T13:29:31.492Z,955.56
2018-09-02T13:31:57.801Z,955.54
2018-09-02T13:34:24.131Z,955.48
2018-09-02T13:36:50.475Z,955.44
2018-09-02T13:39:16.793Z,955.54
2018-09-02T13:41:43.162Z,955.48
2018-09-02T13:44:09.493Z,955.49
2018-09-02T13:46:35.811Z,955.52
2018-09-02T13:49:02.184Z,955.39
2018-09-02T13:51:28.574Z,955.41
2018-09-02T13:53:54.820Z,955.39
2018-09-02T13:56:21.147Z,955.31
2018-09-02T13:58:47.473Z,955.31
2018-09-02T14:01:14.049Z,955.24
2018-09-02T14:03:40.128Z,955.32
2018-09-02T14:06:06.453Z,955.30
2018-09-02T14:08:32.832Z,955.31
2018-09-02T14:10:59.159Z,955.28
2018-09-02T14:13:25.487Z,955.29
2018-09-02T14:15:51.809Z,955.33
2018-09-02T14:18:18.133Z,955.33
2018-09-02T14:20:44.462Z,955.25
2018-09-02T14:23:10.776Z,955.43
2018-09-02T14:25:37.089Z,955.25
2018-09-02T14:28:03.415Z,955.24
2018-09-02T14:30:29.742Z,955.25
2018-09-02T14:32:56.052Z,955.32
2018-09-02T14:35:22.414Z,955.22
2018-09-02T14:37:48.726Z,955.19
2018-09-02T14:40:15.031Z,955.25
2018-09-02T14:42:41.343Z,955.20
2018-09-02T14:45:07.709Z,955.22
2018-09-02T14:47:34.043Z,955.16
2018-09-02T14:50:00.353Z,955.24
2018-09-02T14:52:26.670Z,955.28
2018-09-02T14:54:53.001Z,955.16
2018-09-02T14:57:19.324Z,955.19
2018-09-02T14:59:45.676Z,955.15
2018-09-02T15:02:12.009Z,955.19
2018-09-02T15:04:38.338Z,955.16
2018-09-02T15:07:04.647Z,955.07
2018-09-02T15:09:30.974Z,955.22
2018-09-02T15:11:57.300Z,955.12
2018-09-02T15:14:23.627Z,955.14
2018-09-02T15:16:51.210Z,955.17
2018-09-02T15:19:17.535Z,955.12
2018-09-02T15:21:43.840Z,955.09
2018-09-02T15:24:10.169Z,955.06
2018-09-02T15:26:36.497Z,955.03
2018-09-02T15:29:02.843Z,955.01
2018-09-02T15:31:29.161Z,955.05
2018-09-02T15:33:55.468Z,955.00
2018-09-02T15:36:21.797Z,955.05
2018-09-02T15:38:48.161Z,955.10
2018-09-02T15:41:14.443Z,955.02
2018-09-02T15:43:40.778Z,955.02
2018-09-02T15:46:07.089Z,954.99
2018-09-02T15:48:33.401Z,954.97
2018-09-02T15:50:59.735Z,954.94
2018-09-02T15:53:26.122Z,954.90
2018-09-02T15:55:52.429Z,954.91
2018-09-02T15:58:19.820Z,954.92
2018-09-02T16:00:46.323Z,954.93
2018-09-02T16:03:12.886Z,954.92
2018-09-02T16:05:40.752Z,954.91
2018-09-02T16:08:06.390Z,954.93
2018-09-02T16:10:32.685Z,954.85
2018-09-02T16:12:59.291Z,954.92
2018-09-02T16:15:25.537Z,954.89
2018-09-02T16:17:51.847Z,954.82
2018-09-02T16:20:18.233Z,954.80
2018-09-02T16:22:44.880Z,954.91
2018-09-02T16:25:11.198Z,954.95
2018-09-02T16:27:37.509Z,954.90
2018-09-02T16:30:04.193Z,954.96
2018-09-02T16:32:30.566Z,955.00
2018-09-02T16:34:56.895Z,954.99
2018-09-02T16:37:23.208Z,955.05
2018-09-02T16:39:49.520Z,954.98
2018-09-02T16:42:15.880Z,955.05
2018-09-02T16:44:42.210Z,954.99
2018-09-02T16:47:08.522Z,955.05
2018-09-02T16:49:34.857Z,954.95
2018-09-02T16:52:01.169Z,955.00
2018-09-02T16:54:27.503Z,955.09
2018-09-02T16:56:53.830Z,955.02
2018-09-02T16:59:20.205Z,955.03
2018-09-02T17:01:46.535Z,955.04
2018-09-02T17:04:12.852Z,955.06
2018-09-02T17:06:39.164Z,955.00
2018-09-02T17:09:05.536Z,954.99
2018-09-02T17:11:31.908Z,955.08
2018-09-02T17:13:58.238Z,955.05
2018-09-02T17:16:24.607Z,955.11
2018-09-02T17:18:50.922Z,955.11
2018-09-02T17:21:17.292Z,955.17
2018-09-02T17:23:43.602Z,955.23
2018-09-02T17:26:09.981Z,955.25
2018-09-02T17:28:36.281Z,955.22
2018-09-02T17:31:02.589Z,955.27
2018-09-02T17:33:28.905Z,955.27
2018-09-02T17:35:55.220Z,955.37
2018-09-02T17:38:21.551Z,955.36
2018-09-02T17:40:47.865Z,955.35
2018-09-02T17:43:14.201Z,955.42
2018-09-02T17:45:40.571Z,955.39
2018-09-02T17:48:06.839Z,955.47
2018-09-02T17:50:33.167Z,955.44
2018-09-02T17:52:59.493Z,955.42
2018-09-02T17:55:25.886Z,955.46
2018-09-02T17:57:52.233Z,955.53
2018-09-02T18:00:18.559Z,955.52
2018-09-02T18:02:44.871Z,955.55
2018-09-02T18:05:11.214Z,955.60
2018-09-02T18:07:37.528Z,955.57
2018-09-02T18:10:03.862Z,955.58
2018-09-02T18:12:30.169Z,955.54
2018-09-02T18:14:56.496Z,955.51
2018-09-02T18:17:22.821Z,955.55
2018-09-02T18:19:49.135Z,955.63
2018-09-02T18:22:15.461Z,955.61
2018-09-02T18:24:41.790Z,955.66
2018-09-02T18:27:08.105Z,955.62
2018-09-02T18:29:34.433Z,955.58
2018-09-02T18:32:00.745Z,955.55
2018-09-02T18:34:27.065Z,955.61
2018-09-02T18:36:53.380Z,955.62
2018-09-02T18:39:19.815Z,955.72
2018-09-02T18:41:46.046Z,955.68
2018-09-02T18:44:12.380Z,955.61
2018-09-02T18:46:38.704Z,955.66
2018-09-02T18:49:05.025Z,955.68
2018-09-02T18:51:31.353Z,955.62
2018-09-02T18:53:57.681Z,955.59
2018-09-02T18:56:23.994Z,955.62
2018-09-02T18:58:50.373Z,955.63
2018-09-02T19:01:16.683Z,955.65
2018-09-02T19:03:43.014Z,955.63
2018-09-02T19:06:09.339Z,955.68
2018-09-02T19:08:35.705Z,955.63
2018-09-02T19:11:02.029Z,955.60
2018-09-02T19:13:28.379Z,955.65
2018-09-02T19:15:54.695Z,955.65
2018-09-02T19:18:21.242Z,955.63
2018-09-02T19:20:47.551Z,955.60
2018-09-02T19:23:13.860Z,955.63
2018-09-02T19:25:40.267Z,955.60
2018-09-02T19:28:06.563Z,955.59
2018-09-02T19:30:32.936Z,955.57
2018-09-02T19:32:59.247Z,955.57
2018-09-02T19:35:25.615Z,955.63
2018-09-02T19:37:51.932Z,955.63
2018-09-02T19:40:18.319Z,955.58
2018-09-02T19:42:44.580Z,955.65
2018-09-02T19:45:10.911Z,955.64
2018-09-02T19:47:37.244Z,955.68
2018-09-02T19:50:03.560Z,955.65
2018-09-02T19:52:29.885Z,955.65
2018-09-02T19:54:56.196Z,955.64
2018-09-02T19:57:22.503Z,955.66
2018-09-02T19:59:48.863Z,955.75
2018-09-02T20:02:15.178Z,955.71
2018-09-02T20:04:41.503Z,955.67
2018-09-02T20:07:07.834Z,955.69
2018-09-02T20:09:34.148Z,955.71
2018-09-02T20:12:00.475Z,955.70
2018-09-02T20:14:26.805Z,955.72
2018-09-02T20:16:53.125Z,955.65
2018-09-02T20:19:19.428Z,955.70
2018-09-02T20:21:45.759Z,955.64
2018-09-02T20:24:12.099Z,955.63
2018-09-02T20:26:38.430Z,955.59
2018-09-02T20:29:04.756Z,955.58
2018-09-02T20:31:31.063Z,955.62
2018-09-02T20:33:57.407Z,955.57
2018-09-02T20:36:23.784Z,955.60
2018-09-02T20:38:50.110Z,955.59
2018-09-02T20:41:16.416Z,955.57
2018-09-02T20:43:42.736Z,955.53
2018-09-02T20:46:09.051Z,955.53
2018-09-02T20:48:35.379Z,955.52
2018-09-02T20:51:01.719Z,955.54
2018-09-02T20:53:27.992Z,955.49
2018-09-02T20:55:54.302Z,955.48
2018-09-02T20:58:20.616Z,955.53
2018-09-02T21:00:46.950Z,955.58
2018-09-02T21:03:13.307Z,955.51
2018-09-02T21:05:39.662Z,955.50
2018-09-02T21:08:05.981Z,955.54
2018-09-02T21:10:32.323Z,955.51
2018-09-02T21:12:58.650Z,955.56
2018-09-02T21:15:24.985Z,955.50
2018-09-02T21:17:51.308Z,955.45
2018-09-02T21:20:17.798Z,955.47
2018-09-02T21:22:44.125Z,955.48
2018-09-02T21:25:10.443Z,955.54
2018-09-02T21:27:36.768Z,955.50
2018-09-02T21:30:04.733Z,955.41
2018-09-02T21:32:31.039Z,955.44
2018-09-02T21:34:57.359Z,955.35
2018-09-02T21:37:23.711Z,955.32
2018-09-02T21:39:50.024Z,955.41
2018-09-02T21:42:16.360Z,955.39
2018-09-02T21:44:42.724Z,955.38
2018-09-02T21:47:09.096Z,955.36
2018-09-02T21:49:35.519Z,955.38
2018-09-02T21:52:01.865Z,955.38
2018-09-02T21:54:28.175Z,955.41
2018-09-02T21:56:54.489Z,955.42
2018-09-02T21:59:20.821Z,955.41
2018-09-02T22:01:47.147Z,955.45
2018-09-02T22:04:13.557Z,955.39
2018-09-02T22:06:39.919Z,955.41
2018-09-02T22:09:06.310Z,955.41
2018-09-02T22:11:32.610Z,955.35
2018-09-02T22:13:58.938Z,955.35
2018-09-02T22:16:25.259Z,955.27
2018-09-02T22:18:51.583Z,955.30
2018-09-02T22:21:17.897Z,955.32
2018-09-02T22:23:44.229Z,955.27
2018-09-02T22:26:10.565Z,955.23
2018-09-02T22:28:36.895Z,955.24
2018-09-02T22:31:03.223Z,955.22
2018-09-02T22:33:29.553Z,955.23
2018-09-02T22:35:55.906Z,955.27
2018-09-02T22:38:22.331Z,955.26
2018-09-02T22:40:48.654Z,955.26
2018-09-02T22:43:14.986Z,955.22
2018-09-02T22:45:41.324Z,955.23
2018-09-02T22:48:07.651Z,955.26
2018-09-02T22:50:33.972Z,955.22
2018-09-02T22:53:00.315Z,955.23
2018-09-02T22:55:26.642Z,955.20
2018-09-02T22:57:53.022Z,955.18
2018-09-02T23:00:19.332Z,955.15
2018-09-02T23:02:45.660Z,955.10
2018-09-02T23:05:11.996Z,955.17
2018-09-02T23:07:38.318Z,955.12
2018-09-02T23:10:04.655Z,955.14
2018-09-02T23:12:30.975Z,955.08
2018-09-02T23:14:57.298Z,955.08
2018-09-02T23:17:23.639Z,955.02
2018-09-02T23:19:49.960Z,955.06
2018-09-02T23:22:16.293Z,955.09
2018-09-02T23:24:42.614Z,955.04
2018-09-02T23:27:08.943Z,954.94
2018-09-02T23:29:35.269Z,954.93
2018-09-02T23:32:01.647Z,954.87
2018-09-02T23:34:28.012Z,954.87
2018-09-02T23:36:54.326Z,954.90
2018-09-02T23:39:20.682Z,954.94
2018-09-02T23:41:46.998Z,954.88
2018-09-02T23:44:13.380Z,955.04
2018-09-02T23:46:39.704Z,954.84
2018-09-02T23:49:06.020Z,954.87
2018-09-02T23:51:32.349Z,954.92
2018-09-02T23:53:58.693Z,954.92
2018-09-02T23:56:25.017Z,954.89
2018-09-02T23:58:51.398Z,954.92
